createdAt,value
2023-02-18T00:00:07.935Z,11.41
2023-02-18T00:01:07.136Z,11.39
2023-02-18T00:02:07.195Z,11.39
2023-02-18T00:03:07.137Z,11.38
2023-02-18T00:04:07.126Z,11.36
2023-02-18T00:05:07.104Z,11.36
2023-02-18T00:06:07.349Z,11.36
2023-02-18T00:07:07.074Z,11.35
2023-02-18T00:08:07.095Z,11.35
2023-02-18T00:09:07.077Z,11.33
2023-02-18T00:10:07.025Z,11.35
2023-02-18T00:11:07.032Z,11.33
2023-02-18T00:12:06.994Z,11.35
2023-02-18T00:13:07.011Z,11.31
2023-02-18T00:14:06.984Z,11.31
2023-02-18T00:15:06.961Z,11.31
2023-02-18T00:16:07.481Z,11.31
2023-02-18T00:17:06.954Z,11.31
2023-02-18T00:18:06.942Z,11.31
2023-02-18T00:19:06.923Z,11.30
2023-02-18T00:20:06.905Z,11.31
2023-02-18T00:21:06.921Z,11.31
2023-02-18T00:22:06.908Z,11.30
2023-02-18T00:23:06.880Z,11.30
2023-02-18T00:24:06.882Z,11.31
2023-02-18T00:25:06.838Z,11.31
2023-02-18T00:26:07.241Z,11.31
2023-02-18T00:27:06.816Z,11.30
2023-02-18T00:28:07.334Z,11.30
2023-02-18T00:29:06.824Z,11.30
2023-02-18T00:30:06.804Z,11.31
2023-02-18T00:31:06.853Z,11.30
2023-02-18T00:32:06.822Z,11.31
2023-02-18T00:33:06.709Z,11.31
2023-02-18T00:34:06.771Z,11.33
2023-02-18T00:35:06.718Z,11.30
2023-02-18T00:36:07.056Z,11.31
2023-02-18T00:37:06.721Z,11.31
2023-02-18T00:38:06.673Z,11.31
2023-02-18T00:39:06.669Z,11.31
2023-02-18T00:40:06.657Z,11.31
2023-02-18T00:41:06.634Z,11.33
2023-02-18T00:42:06.638Z,11.31
2023-02-18T00:43:06.582Z,11.33
2023-02-18T00:44:06.639Z,11.31
2023-02-18T00:45:06.550Z,11.31
2023-02-18T00:46:06.955Z,11.31
2023-02-18T00:47:06.531Z,11.31
2023-02-18T00:48:06.589Z,11.31
2023-02-18T00:49:06.530Z,11.31
2023-02-18T00:50:06.545Z,11.31
2023-02-18T00:51:06.483Z,11.30
2023-02-18T00:52:06.521Z,11.30
2023-02-18T00:53:06.477Z,11.31
2023-02-18T00:54:06.496Z,11.31
2023-02-18T00:55:06.420Z,11.31
2023-02-18T00:56:06.980Z,11.33
2023-02-18T00:57:06.421Z,11.30
2023-02-18T00:58:06.417Z,11.31
2023-02-18T00:59:06.402Z,11.31
2023-02-18T01:00:06.395Z,11.31
2023-02-18T01:01:07.494Z,11.31
2023-02-18T01:02:06.380Z,11.33
2023-02-18T01:03:06.348Z,11.31
2023-02-18T01:04:06.365Z,11.35
2023-02-18T01:05:06.318Z,11.33
2023-02-18T01:06:06.485Z,11.35
2023-02-18T01:07:06.297Z,11.35
2023-02-18T01:08:06.331Z,11.35
2023-02-18T01:09:06.280Z,11.35
2023-02-18T01:10:06.260Z,11.33
2023-02-18T01:11:06.220Z,11.36
2023-02-18T01:12:06.247Z,11.35
2023-02-18T01:13:06.220Z,11.35
2023-02-18T01:14:06.236Z,11.35
2023-02-18T01:15:06.211Z,11.38
2023-02-18T01:16:06.604Z,11.36
2023-02-18T01:17:06.147Z,11.36
2023-02-18T01:18:06.204Z,11.36
2023-02-18T01:19:06.142Z,11.36
2023-02-18T01:20:06.122Z,11.36
2023-02-18T01:21:06.127Z,11.38
2023-02-18T01:22:06.126Z,11.38
2023-02-18T01:23:06.099Z,11.38
2023-02-18T01:24:06.107Z,11.39
2023-02-18T01:25:06.086Z,11.38
2023-02-18T01:26:06.330Z,11.38
2023-02-18T01:27:06.017Z,11.38
2023-02-18T01:28:06.039Z,11.36
2023-02-18T01:29:06.027Z,11.35
2023-02-18T01:30:06.057Z,11.36
2023-02-18T01:31:06.138Z,11.36
2023-02-18T01:32:06.041Z,11.38
2023-02-18T01:33:05.940Z,11.38
2023-02-18T01:34:05.955Z,11.35
2023-02-18T01:35:05.940Z,11.35
2023-02-18T01:36:06.241Z,11.33
2023-02-18T01:37:05.896Z,11.35
2023-02-18T01:38:05.931Z,11.35
2023-02-18T01:39:05.914Z,11.36
2023-02-18T01:40:05.900Z,11.35
2023-02-18T01:41:05.866Z,11.33
2023-02-18T01:42:05.862Z,11.35
2023-02-18T01:43:05.831Z,11.35
2023-02-18T01:44:05.850Z,11.33
2023-02-18T01:45:05.773Z,11.35
2023-02-18T01:46:06.104Z,11.36
2023-02-18T01:47:05.785Z,11.35
2023-02-18T01:48:05.790Z,11.33
2023-02-18T01:49:05.741Z,11.33
2023-02-18T01:50:05.757Z,11.35
2023-02-18T01:51:05.703Z,11.35
2023-02-18T01:52:05.708Z,11.33
2023-02-18T01:53:05.707Z,11.33
2023-02-18T01:54:05.743Z,11.35
2023-02-18T01:55:05.676Z,11.35
2023-02-18T01:56:06.000Z,11.33
2023-02-18T01:57:05.646Z,11.33
2023-02-18T01:58:05.687Z,11.31
2023-02-18T01:59:05.607Z,11.31
2023-02-18T02:00:05.603Z,11.31
2023-02-18T02:01:05.625Z,11.31
2023-02-18T02:02:05.608Z,11.31
2023-02-18T02:03:05.549Z,11.31
2023-02-18T02:04:05.539Z,11.30
2023-02-18T02:05:05.562Z,11.30
2023-02-18T02:06:05.586Z,11.30
2023-02-18T02:07:05.533Z,11.30
2023-02-18T02:08:05.507Z,11.28
2023-02-18T02:09:05.502Z,11.28
2023-02-18T02:10:05.485Z,11.28
2023-02-18T02:11:05.471Z,11.27
2023-02-18T02:12:05.482Z,11.27
2023-02-18T02:13:05.441Z,11.27
2023-02-18T02:14:05.452Z,11.27
2023-02-18T02:15:05.401Z,11.27
2023-02-18T02:16:05.484Z,11.26
2023-02-18T02:17:05.366Z,11.23
2023-02-18T02:18:05.395Z,11.23
2023-02-18T02:19:05.369Z,11.21
2023-02-18T02:20:05.324Z,11.20
2023-02-18T02:21:05.362Z,11.20
2023-02-18T02:22:05.311Z,11.20
2023-02-18T02:23:05.324Z,11.19
2023-02-18T02:24:05.322Z,11.17
2023-02-18T02:25:05.269Z,11.17
2023-02-18T02:26:05.345Z,11.19
2023-02-18T02:27:06.922Z,11.19
2023-02-18T02:28:05.275Z,11.17
2023-02-18T02:29:05.222Z,11.17
2023-02-18T02:30:05.295Z,11.17
2023-02-18T02:31:05.320Z,11.19
2023-02-18T02:32:05.181Z,11.19
2023-02-18T02:33:05.190Z,11.19
2023-02-18T02:34:05.152Z,11.19
2023-02-18T02:35:05.189Z,11.19
2023-02-18T02:36:05.282Z,11.19
2023-02-18T02:37:05.168Z,11.19
2023-02-18T02:38:05.160Z,11.20
2023-02-18T02:39:05.094Z,11.19
2023-02-18T02:40:05.115Z,11.16
2023-02-18T02:41:05.113Z,11.19
2023-02-18T02:42:05.037Z,11.19
2023-02-18T02:43:05.063Z,11.19
2023-02-18T02:44:05.053Z,11.19
2023-02-18T02:45:05.017Z,11.17
2023-02-18T02:46:05.122Z,11.19
2023-02-18T02:47:05.019Z,11.19
2023-02-18T02:48:05.102Z,11.19
2023-02-18T02:49:05.029Z,11.20
2023-02-18T02:50:04.964Z,11.21
2023-02-18T02:51:04.973Z,11.21
2023-02-18T02:52:04.953Z,11.21
2023-02-18T02:53:06.098Z,11.23
2023-02-18T02:54:04.885Z,11.21
2023-02-18T02:55:04.941Z,11.21
2023-02-18T02:56:04.857Z,11.23
2023-02-18T02:57:04.876Z,11.23
2023-02-18T02:58:04.856Z,11.23
2023-02-18T02:59:04.856Z,11.21
2023-02-18T03:00:04.810Z,11.21
2023-02-18T03:01:04.833Z,11.21
2023-02-18T03:02:04.812Z,11.20
2023-02-18T03:03:04.879Z,11.21
2023-02-18T03:04:04.767Z,11.23
2023-02-18T03:05:04.792Z,11.23
2023-02-18T03:06:04.878Z,11.23
2023-02-18T03:07:04.748Z,11.24
2023-02-18T03:08:04.745Z,11.24
2023-02-18T03:09:04.715Z,11.24
2023-02-18T03:10:04.682Z,11.23
2023-02-18T03:11:04.686Z,11.26
2023-02-18T03:12:04.655Z,11.26
2023-02-18T03:13:04.658Z,11.26
2023-02-18T03:14:04.690Z,11.26
2023-02-18T03:15:04.668Z,11.26
2023-02-18T03:16:04.645Z,11.27
2023-02-18T03:17:04.678Z,11.27
2023-02-18T03:18:04.619Z,11.27
2023-02-18T03:19:04.605Z,11.27
2023-02-18T03:20:05.351Z,11.27
2023-02-18T03:21:04.562Z,11.30
2023-02-18T03:22:04.558Z,11.30
2023-02-18T03:23:04.564Z,11.28
2023-02-18T03:24:04.521Z,11.28
2023-02-18T03:25:04.543Z,11.28
2023-02-18T03:26:04.513Z,11.30
2023-02-18T03:27:04.525Z,11.30
2023-02-18T03:28:04.461Z,11.30
2023-02-18T03:29:04.504Z,11.31
2023-02-18T03:30:04.471Z,11.30
2023-02-18T03:31:04.518Z,11.30
2023-02-18T03:32:04.431Z,11.31
2023-02-18T03:33:04.452Z,11.30
2023-02-18T03:34:04.409Z,11.31
2023-02-18T03:35:04.381Z,11.30
2023-02-18T03:36:04.368Z,11.30
2023-02-18T03:37:04.354Z,11.31
2023-02-18T03:38:04.361Z,11.31
2023-02-18T03:39:04.339Z,11.31
2023-02-18T03:40:04.318Z,11.30
2023-02-18T03:41:04.343Z,11.27
2023-02-18T03:42:04.303Z,11.26
2023-02-18T03:43:05.244Z,11.23
2023-02-18T03:44:04.273Z,11.20
2023-02-18T03:45:04.243Z,11.17
2023-02-18T03:46:04.297Z,11.11
2023-02-18T03:47:04.250Z,11.09
2023-02-18T03:48:04.212Z,11.06
2023-02-18T03:49:04.202Z,11.05
2023-02-18T03:50:04.267Z,11.02
2023-02-18T03:51:04.199Z,10.98
2023-02-18T03:52:04.178Z,10.94
2023-02-18T03:53:04.177Z,10.93
2023-02-18T03:54:04.161Z,10.90
2023-02-18T03:55:04.165Z,10.90
2023-02-18T03:56:04.087Z,10.88
2023-02-18T03:57:04.111Z,10.88
2023-02-18T03:58:04.104Z,10.87
2023-02-18T03:59:04.090Z,10.84
2023-02-18T04:00:04.109Z,10.83
2023-02-18T04:01:04.105Z,10.84
2023-02-18T04:02:04.063Z,10.81
2023-02-18T04:03:04.041Z,10.78
2023-02-18T04:04:04.082Z,10.78
2023-02-18T04:05:04.033Z,10.76
2023-02-18T04:06:04.008Z,10.75
2023-02-18T04:07:03.991Z,10.75
2023-02-18T04:08:04.105Z,10.75
2023-02-18T04:09:03.990Z,10.76
2023-02-18T04:10:03.932Z,10.76
2023-02-18T04:11:03.929Z,10.73
2023-02-18T04:12:03.891Z,10.73
2023-02-18T04:13:03.892Z,10.75
2023-02-18T04:14:03.874Z,10.72
2023-02-18T04:15:03.872Z,10.70
2023-02-18T04:16:03.880Z,10.69
2023-02-18T04:17:03.820Z,10.69
2023-02-18T04:18:04.578Z,10.69
2023-02-18T04:19:03.836Z,10.68
2023-02-18T04:20:03.836Z,10.69
2023-02-18T04:21:03.821Z,10.69
2023-02-18T04:22:03.778Z,10.68
2023-02-18T04:23:03.757Z,10.66
2023-02-18T04:24:03.740Z,10.65
2023-02-18T04:25:03.747Z,10.66
2023-02-18T04:26:03.746Z,10.68
2023-02-18T04:27:03.736Z,10.66
2023-02-18T04:28:03.712Z,10.66
2023-02-18T04:29:03.744Z,10.66
2023-02-18T04:30:03.780Z,10.66
2023-02-18T04:31:03.746Z,10.66
2023-02-18T04:32:03.714Z,10.63
2023-02-18T04:33:03.647Z,10.63
2023-02-18T04:34:03.626Z,10.65
2023-02-18T04:35:03.652Z,10.63
2023-02-18T04:36:03.594Z,10.63
2023-02-18T04:37:03.894Z,10.63
2023-02-18T04:38:03.564Z,10.63
2023-02-18T04:39:03.552Z,10.65
2023-02-18T04:40:03.533Z,10.63
2023-02-18T04:41:03.616Z,10.62
2023-02-18T04:42:03.508Z,10.63
2023-02-18T04:43:03.524Z,10.62
2023-02-18T04:44:03.479Z,10.62
2023-02-18T04:45:03.504Z,10.63
2023-02-18T04:46:03.555Z,10.62
2023-02-18T04:47:03.463Z,10.63
2023-02-18T04:48:03.486Z,10.63
2023-02-18T04:49:03.440Z,10.62
2023-02-18T04:50:03.413Z,10.63
2023-02-18T04:51:03.421Z,10.62
2023-02-18T04:52:03.383Z,10.60
2023-02-18T04:53:03.390Z,10.60
2023-02-18T04:54:03.419Z,10.60
2023-02-18T04:55:03.368Z,10.62
2023-02-18T04:56:03.316Z,10.60
2023-02-18T04:57:03.319Z,10.60
2023-02-18T04:58:03.317Z,10.60
2023-02-18T04:59:03.316Z,10.60
2023-02-18T05:00:03.257Z,10.62
2023-02-18T05:01:03.346Z,10.62
2023-02-18T05:02:03.253Z,10.63
2023-02-18T05:03:03.253Z,10.60
2023-02-18T05:04:03.299Z,10.60
2023-02-18T05:05:03.197Z,10.60
2023-02-18T05:06:03.205Z,10.58
2023-02-18T05:07:03.262Z,10.58
2023-02-18T05:08:03.196Z,10.57
2023-02-18T05:09:03.193Z,10.57
2023-02-18T05:10:03.147Z,10.55
2023-02-18T05:11:03.151Z,10.57
2023-02-18T05:12:03.138Z,10.58
2023-02-18T05:13:03.113Z,10.57
2023-02-18T05:14:03.165Z,10.57
2023-02-18T05:15:03.129Z,10.55
2023-02-18T05:16:03.130Z,10.55
2023-02-18T05:17:03.071Z,10.52
2023-02-18T05:18:03.049Z,10.54
2023-02-18T05:19:03.095Z,10.54
2023-02-18T05:20:03.055Z,10.54
2023-02-18T05:21:03.062Z,10.54
2023-02-18T05:22:02.992Z,10.55
2023-02-18T05:23:03.024Z,10.54
2023-02-18T05:24:02.967Z,10.54
2023-02-18T05:25:03.007Z,10.54
2023-02-18T05:26:02.970Z,10.54
2023-02-18T05:27:02.924Z,10.54
2023-02-18T05:28:02.960Z,10.54
2023-02-18T05:29:02.951Z,10.52
2023-02-18T05:30:02.903Z,10.54
2023-02-18T05:31:03.077Z,10.52
2023-02-18T05:32:02.898Z,10.52
2023-02-18T05:33:02.896Z,10.51
2023-02-18T05:34:02.854Z,10.49
2023-02-18T05:35:02.824Z,10.47
2023-02-18T05:36:03.112Z,10.49
2023-02-18T05:37:02.849Z,10.49
2023-02-18T05:38:02.767Z,10.49
2023-02-18T05:39:02.823Z,10.51
2023-02-18T05:40:02.774Z,10.49
2023-02-18T05:41:02.792Z,10.49
2023-02-18T05:42:02.778Z,10.49
2023-02-18T05:43:02.726Z,10.51
2023-02-18T05:44:02.723Z,10.51
2023-02-18T05:45:02.736Z,10.51
2023-02-18T05:46:02.850Z,10.51
2023-02-18T05:47:02.692Z,10.51
2023-02-18T05:48:02.658Z,10.51
2023-02-18T05:49:02.660Z,10.47
2023-02-18T05:50:02.652Z,10.47
2023-02-18T05:51:02.678Z,10.46
2023-02-18T05:52:02.595Z,10.49
2023-02-18T05:53:02.627Z,10.44
2023-02-18T05:54:02.590Z,10.46
2023-02-18T05:55:02.590Z,10.49
2023-02-18T05:56:02.565Z,10.46
2023-02-18T05:57:02.573Z,10.46
2023-02-18T05:58:02.550Z,10.46
2023-02-18T06:00:00.371Z,10.44
2023-02-18T06:01:00.121Z,10.43
2023-02-18T06:02:00.108Z,10.43
2023-02-18T06:03:00.188Z,10.42
2023-02-18T06:04:00.106Z,10.39
2023-02-18T06:05:00.109Z,10.39
2023-02-18T06:06:00.134Z,10.42
2023-02-18T06:07:00.025Z,10.42
2023-02-18T06:08:00.027Z,10.39
2023-02-18T06:09:00.000Z,10.39
2023-02-18T06:09:59.993Z,10.35
2023-02-18T06:11:00.000Z,10.38
2023-02-18T06:11:59.982Z,10.36
2023-02-18T06:12:59.969Z,10.36
2023-02-18T06:13:59.950Z,10.36
2023-02-18T06:14:59.963Z,10.36
2023-02-18T06:15:59.938Z,10.38
2023-02-18T06:16:59.896Z,10.36
2023-02-18T06:17:59.875Z,10.35
2023-02-18T06:18:59.901Z,10.35
2023-02-18T06:19:59.870Z,10.35
2023-02-18T06:20:59.864Z,10.35
2023-02-18T06:21:59.814Z,10.35
2023-02-18T06:22:59.816Z,10.35
2023-02-18T06:23:59.796Z,10.35
2023-02-18T06:24:59.817Z,10.35
2023-02-18T06:25:59.767Z,10.34
2023-02-18T06:26:59.781Z,10.34
2023-02-18T06:27:59.777Z,10.34
2023-02-18T06:28:59.758Z,10.34
2023-02-18T06:29:59.783Z,10.34
2023-02-18T06:30:59.920Z,10.34
2023-02-18T06:31:59.859Z,10.35
2023-02-18T06:32:59.792Z,10.35
2023-02-18T06:33:59.716Z,10.34
2023-02-18T06:34:59.701Z,10.34
2023-02-18T06:35:59.682Z,10.34
2023-02-18T06:37:01.328Z,10.32
2023-02-18T06:37:59.606Z,10.35
2023-02-18T06:38:59.606Z,10.34
2023-02-18T06:39:59.587Z,10.34
2023-02-18T06:40:59.581Z,10.32
2023-02-18T06:41:59.580Z,10.35
2023-02-18T06:42:59.556Z,10.36
2023-02-18T06:43:59.542Z,10.38
2023-02-18T06:44:59.540Z,10.36
2023-02-18T06:45:59.535Z,10.39
2023-02-18T06:46:59.516Z,10.39
2023-02-18T06:47:59.516Z,10.42
2023-02-18T06:48:59.513Z,10.42
2023-02-18T06:49:59.500Z,10.42
2023-02-18T06:50:59.461Z,10.43
2023-02-18T06:51:59.472Z,10.43
2023-02-18T06:52:59.412Z,10.44
2023-02-18T06:53:59.459Z,10.44
2023-02-18T06:54:59.434Z,10.44
2023-02-18T06:55:59.385Z,10.46
2023-02-18T06:56:59.390Z,10.46
2023-02-18T06:57:59.363Z,10.47
2023-02-18T06:58:59.367Z,10.49
2023-02-18T06:59:59.372Z,10.52
2023-02-18T07:00:59.348Z,10.51
2023-02-18T07:01:59.350Z,10.52
2023-02-18T07:02:59.283Z,10.55
2023-02-18T07:03:59.369Z,10.55
2023-02-18T07:04:59.261Z,10.57
2023-02-18T07:05:59.294Z,10.57
2023-02-18T07:06:59.237Z,10.58
2023-02-18T07:07:59.269Z,10.58
2023-02-18T07:08:59.231Z,10.58
2023-02-18T07:09:59.238Z,10.58
2023-02-18T07:10:59.206Z,10.60
2023-02-18T07:11:59.207Z,10.62
2023-02-18T07:12:59.161Z,10.60
2023-02-18T07:13:59.197Z,10.63
2023-02-18T07:14:59.140Z,10.63
2023-02-18T07:15:59.179Z,10.63
2023-02-18T07:16:59.110Z,10.65
2023-02-18T07:17:59.115Z,10.63
2023-02-18T07:18:59.127Z,10.65
2023-02-18T07:19:59.105Z,10.66
2023-02-18T07:20:59.095Z,10.68
2023-02-18T07:21:59.093Z,10.69
2023-02-18T07:22:59.061Z,10.69
2023-02-18T07:23:59.505Z,10.69
2023-02-18T07:24:58.998Z,10.70
2023-02-18T07:25:59.036Z,10.70
2023-02-18T07:26:58.974Z,10.69
2023-02-18T07:27:58.976Z,10.72
2023-02-18T07:28:58.996Z,10.75
2023-02-18T07:29:58.985Z,10.75
2023-02-18T07:30:58.949Z,10.76
2023-02-18T07:31:58.989Z,10.78
2023-02-18T07:32:58.923Z,10.80
2023-02-18T07:33:59.068Z,10.80
2023-02-18T07:34:58.914Z,10.78
2023-02-18T07:35:58.900Z,10.78
2023-02-18T07:36:58.866Z,10.81
2023-02-18T07:37:58.878Z,10.83
2023-02-18T07:38:58.818Z,10.86
2023-02-18T07:39:58.857Z,10.83
2023-02-18T07:40:58.811Z,10.84
2023-02-18T07:41:58.831Z,10.83
2023-02-18T07:42:58.800Z,10.83
2023-02-18T07:43:58.794Z,10.83
2023-02-18T07:44:58.770Z,10.81
2023-02-18T07:45:58.772Z,10.81
2023-02-18T07:46:58.728Z,10.78
2023-02-18T07:47:58.725Z,10.76
2023-02-18T07:48:58.739Z,10.75
2023-02-18T07:49:58.698Z,10.75
2023-02-18T07:50:58.731Z,10.73
2023-02-18T07:51:58.686Z,10.73
2023-02-18T07:52:58.662Z,10.72
2023-02-18T07:53:58.671Z,10.72
2023-02-18T07:54:58.626Z,10.70
2023-02-18T07:55:58.644Z,10.70
2023-02-18T07:56:58.608Z,10.70
2023-02-18T07:57:58.618Z,10.72
2023-02-18T07:58:58.592Z,10.73
2023-02-18T07:59:58.737Z,10.75
2023-02-18T08:00:58.593Z,10.76
2023-02-18T08:01:58.575Z,10.75
2023-02-18T08:02:58.539Z,10.75
2023-02-18T08:03:58.573Z,10.75
2023-02-18T08:04:58.509Z,10.75
2023-02-18T08:05:58.508Z,10.75
2023-02-18T08:06:58.513Z,10.73
2023-02-18T08:07:58.489Z,10.70
2023-02-18T08:08:58.469Z,10.70
2023-02-18T08:09:58.461Z,10.66
2023-02-18T08:10:59.661Z,10.65
2023-02-18T08:11:58.453Z,10.62
2023-02-18T08:12:58.410Z,10.60
2023-02-18T08:13:58.409Z,10.58
2023-02-18T08:14:58.407Z,10.57
2023-02-18T08:15:58.364Z,10.55
2023-02-18T08:16:58.376Z,10.54
2023-02-18T08:17:58.338Z,10.54
2023-02-18T08:18:58.348Z,10.55
2023-02-18T08:19:58.344Z,10.55
2023-02-18T08:20:58.351Z,10.55
2023-02-18T08:21:58.295Z,10.54
2023-02-18T08:22:58.284Z,10.52
2023-02-18T08:23:58.298Z,10.55
2023-02-18T08:24:58.242Z,10.54
2023-02-18T08:25:58.276Z,10.52
2023-02-18T08:27:00.954Z,10.51
2023-02-18T08:27:58.257Z,10.51
2023-02-18T08:28:58.233Z,10.52
2023-02-18T08:29:58.302Z,10.51
2023-02-18T08:30:58.198Z,10.49
2023-02-18T08:31:58.480Z,10.46
2023-02-18T08:32:58.184Z,10.47
2023-02-18T08:33:58.144Z,10.51
2023-02-18T08:34:58.111Z,10.47
2023-02-18T08:35:58.146Z,10.49
2023-02-18T08:36:58.111Z,10.49
2023-02-18T08:37:58.697Z,10.51
2023-02-18T08:38:58.108Z,10.49
2023-02-18T08:39:58.092Z,10.51
2023-02-18T08:40:58.062Z,10.52
2023-02-18T08:41:58.065Z,10.49
2023-02-18T08:42:58.021Z,10.49
2023-02-18T08:43:58.055Z,10.46
2023-02-18T08:44:58.021Z,10.43
2023-02-18T08:45:58.014Z,10.42
2023-02-18T08:46:58.063Z,10.36
2023-02-18T08:48:17.647Z,10.38
2023-02-18T08:48:58.942Z,10.36
2023-02-18T08:49:57.965Z,10.39
2023-02-18T08:50:57.974Z,10.38
2023-02-18T08:51:57.904Z,10.35
2023-02-18T08:52:57.899Z,10.35
2023-02-18T08:53:57.922Z,10.34
2023-02-18T08:54:57.866Z,10.34
2023-02-18T08:55:57.886Z,10.32
2023-02-18T08:56:57.849Z,10.35
2023-02-18T08:57:57.858Z,10.35
2023-02-18T08:58:57.821Z,10.36
2023-02-18T08:59:57.812Z,10.36
2023-02-18T09:00:57.854Z,10.35
2023-02-18T09:01:57.781Z,10.35
2023-02-18T09:02:57.767Z,10.39
2023-02-18T09:03:57.792Z,10.42
2023-02-18T09:04:57.737Z,10.42
2023-02-18T09:05:57.758Z,10.43
2023-02-18T09:06:57.752Z,10.46
2023-02-18T09:07:57.712Z,10.49
2023-02-18T09:08:57.697Z,10.46
2023-02-18T09:09:57.692Z,10.43
2023-02-18T09:10:57.687Z,10.46
2023-02-18T09:11:57.690Z,10.47
2023-02-18T09:12:57.763Z,10.47
2023-02-18T09:13:57.638Z,10.51
2023-02-18T09:14:57.598Z,10.52
2023-02-18T09:15:57.677Z,10.51
2023-02-18T09:16:57.604Z,10.54
2023-02-18T09:17:57.630Z,10.57
2023-02-18T09:18:57.546Z,10.60
2023-02-18T09:19:57.554Z,10.60
2023-02-18T09:20:57.560Z,10.57
2023-02-18T09:21:59.164Z,10.55
2023-02-18T09:22:57.497Z,10.54
2023-02-18T09:23:57.522Z,10.57
2023-02-18T09:24:57.473Z,10.57
2023-02-18T09:25:57.501Z,10.55
2023-02-18T09:26:57.481Z,10.57
2023-02-18T09:27:57.448Z,10.58
2023-02-18T09:28:57.455Z,10.60
2023-02-18T09:29:57.464Z,10.65
2023-02-18T09:30:57.482Z,10.63
2023-02-18T09:31:57.424Z,10.63
2023-02-18T09:32:57.391Z,10.63
2023-02-18T09:33:57.397Z,10.65
2023-02-18T09:34:57.372Z,10.68
2023-02-18T09:35:57.378Z,10.68
2023-02-18T09:36:57.326Z,10.68
2023-02-18T09:37:57.349Z,10.68
2023-02-18T09:38:57.289Z,10.70
2023-02-18T09:39:57.311Z,10.70
2023-02-18T09:40:57.296Z,10.70
2023-02-18T09:41:57.326Z,10.72
2023-02-18T09:42:57.268Z,10.73
2023-02-18T09:43:57.275Z,10.72
2023-02-18T09:44:57.235Z,10.70
2023-02-18T09:45:57.264Z,10.70
2023-02-18T09:46:57.224Z,10.73
2023-02-18T09:47:57.225Z,10.73
2023-02-18T09:48:57.184Z,10.76
2023-02-18T09:49:57.185Z,10.76
2023-02-18T09:50:57.143Z,10.76
2023-02-18T09:51:57.172Z,10.75
2023-02-18T09:52:57.133Z,10.75
2023-02-18T09:53:57.137Z,10.75
2023-02-18T09:54:57.113Z,10.75
2023-02-18T09:55:57.106Z,10.75
2023-02-18T09:56:57.124Z,10.73
2023-02-18T09:57:57.089Z,10.75
2023-02-18T09:58:57.054Z,10.76
2023-02-18T09:59:57.037Z,10.78
2023-02-18T10:00:57.007Z,10.78
2023-02-18T10:01:57.269Z,10.80
2023-02-18T10:02:57.070Z,10.78
2023-02-18T10:03:57.003Z,10.78
2023-02-18T10:04:56.947Z,10.80
2023-02-18T10:05:56.975Z,10.80
2023-02-18T10:06:56.946Z,10.78
2023-02-18T10:07:56.953Z,10.78
2023-02-18T10:08:56.931Z,10.80
2023-02-18T10:09:56.903Z,10.80
2023-02-18T10:10:56.911Z,10.81
2023-02-18T10:11:56.919Z,10.80
2023-02-18T10:12:56.861Z,10.80
2023-02-18T10:13:56.886Z,10.78
2023-02-18T10:14:56.823Z,10.78
2023-02-18T10:15:56.913Z,10.80
2023-02-18T10:16:56.813Z,10.80
2023-02-18T10:17:56.838Z,10.81
2023-02-18T10:18:56.852Z,10.81
2023-02-18T10:19:56.786Z,10.84
2023-02-18T10:20:56.772Z,10.86
2023-02-18T10:21:56.800Z,10.84
2023-02-18T10:22:56.725Z,10.86
2023-02-18T10:23:56.749Z,10.86
2023-02-18T10:24:56.705Z,10.84
2023-02-18T10:25:56.721Z,10.83
2023-02-18T10:26:56.706Z,10.84
2023-02-18T10:27:56.702Z,10.84
2023-02-18T10:28:56.658Z,10.84
2023-02-18T10:29:56.672Z,10.86
2023-02-18T10:30:56.641Z,10.86
2023-02-18T10:31:56.826Z,10.87
2023-02-18T10:32:56.619Z,10.88
2023-02-18T10:33:56.680Z,10.87
2023-02-18T10:34:58.752Z,10.87
2023-02-18T10:35:56.601Z,10.86
2023-02-18T10:36:56.562Z,10.87
2023-02-18T10:37:56.544Z,10.86
2023-02-18T10:38:56.541Z,10.86
2023-02-18T10:39:56.552Z,10.83
2023-02-18T10:40:58.020Z,10.84
2023-02-18T10:41:56.517Z,10.84
2023-02-18T10:42:56.491Z,10.84
2023-02-18T10:43:56.470Z,10.83
2023-02-18T10:44:56.492Z,10.83
2023-02-18T10:45:56.450Z,10.84
2023-02-18T10:46:56.470Z,10.86
2023-02-18T10:47:56.440Z,10.83
2023-02-18T10:48:56.431Z,10.81
2023-02-18T10:49:56.421Z,10.81
2023-02-18T10:50:56.366Z,10.83
2023-02-18T10:51:56.421Z,10.81
2023-02-18T10:52:56.371Z,10.81
2023-02-18T10:53:56.397Z,10.80
2023-02-18T10:54:56.338Z,10.81
2023-02-18T10:55:56.347Z,10.80
2023-02-18T10:56:56.301Z,10.73
2023-02-18T10:57:56.289Z,10.72
2023-02-18T10:58:56.273Z,10.68
2023-02-18T10:59:56.306Z,10.62
2023-02-18T11:00:56.237Z,10.55
2023-02-18T11:01:56.286Z,10.54
2023-02-18T11:02:56.220Z,10.54
2023-02-18T11:03:56.200Z,10.49
2023-02-18T11:04:56.239Z,10.46
2023-02-18T11:05:56.176Z,10.47
2023-02-18T11:06:56.177Z,10.44
2023-02-18T11:07:56.184Z,10.43
2023-02-18T11:08:56.164Z,10.43
2023-02-18T11:09:56.166Z,10.42
2023-02-18T11:10:56.120Z,10.43
2023-02-18T11:12:07.797Z,10.43
2023-02-18T11:12:57.132Z,10.46
2023-02-18T11:13:56.094Z,10.49
2023-02-18T11:14:56.094Z,10.47
2023-02-18T11:15:56.108Z,10.51
2023-02-18T11:16:56.093Z,10.55
2023-02-18T11:17:56.066Z,10.58
2023-02-18T11:18:56.043Z,10.58
2023-02-18T11:19:56.020Z,10.60
2023-02-18T11:20:56.028Z,10.62
2023-02-18T11:21:55.992Z,10.63
2023-02-18T11:22:55.974Z,10.65
2023-02-18T11:23:55.977Z,10.68
2023-02-18T11:24:55.967Z,10.65
2023-02-18T11:25:55.915Z,10.65
2023-02-18T11:26:55.948Z,10.68
2023-02-18T11:27:55.893Z,10.65
2023-02-18T11:28:55.932Z,10.62
2023-02-18T11:29:55.871Z,10.58
2023-02-18T11:30:55.956Z,10.55
2023-02-18T11:31:56.033Z,10.54
2023-02-18T11:32:55.851Z,10.47
2023-02-18T11:33:55.857Z,10.44
2023-02-18T11:34:55.840Z,10.43
2023-02-18T11:35:55.786Z,10.42
2023-02-18T11:36:55.811Z,10.38
2023-02-18T11:37:55.773Z,10.35
2023-02-18T11:38:55.779Z,10.35
2023-02-18T11:39:55.777Z,10.38
2023-02-18T11:40:55.733Z,10.36
2023-02-18T11:41:55.725Z,10.35
2023-02-18T11:42:55.710Z,10.34
2023-02-18T11:43:55.712Z,10.38
2023-02-18T11:44:55.718Z,10.36
2023-02-18T11:45:55.651Z,10.36
2023-02-18T11:46:55.709Z,10.36
2023-02-18T11:47:55.641Z,10.36
2023-02-18T11:48:55.632Z,10.34
2023-02-18T11:49:55.648Z,10.34
2023-02-18T11:50:55.626Z,10.34
2023-02-18T11:51:55.583Z,10.32
2023-02-18T11:52:55.591Z,10.32
2023-02-18T11:53:55.579Z,10.29
2023-02-18T11:54:55.568Z,10.34
2023-02-18T11:55:55.560Z,10.34
2023-02-18T11:56:55.557Z,10.34
2023-02-18T11:57:55.512Z,10.36
2023-02-18T11:58:55.524Z,10.36
2023-02-18T11:59:55.510Z,10.35
2023-02-18T12:00:55.483Z,10.35
2023-02-18T12:01:55.505Z,10.35
2023-02-18T12:02:55.460Z,10.38
2023-02-18T12:03:55.461Z,10.35
2023-02-18T12:04:55.566Z,10.42
2023-02-18T12:05:55.413Z,10.39
2023-02-18T12:06:55.440Z,10.36
2023-02-18T12:07:55.398Z,10.35
2023-02-18T12:08:55.401Z,10.34
2023-02-18T12:09:55.392Z,10.38
2023-02-18T12:10:55.362Z,10.39
2023-02-18T12:11:55.344Z,10.38
2023-02-18T12:12:55.323Z,10.39
2023-02-18T12:13:55.340Z,10.36
2023-02-18T12:14:55.309Z,10.36
2023-02-18T12:15:55.284Z,10.38
2023-02-18T12:16:55.285Z,10.38
2023-02-18T12:17:55.304Z,10.36
2023-02-18T12:18:55.246Z,10.32
2023-02-18T12:19:55.256Z,10.36
2023-02-18T12:20:55.231Z,10.38
2023-02-18T12:21:55.237Z,10.35
2023-02-18T12:22:55.257Z,10.35
2023-02-18T12:23:55.214Z,10.35
2023-02-18T12:24:55.217Z,10.34
2023-02-18T12:25:55.196Z,10.36
2023-02-18T12:26:55.178Z,10.35
2023-02-18T12:27:55.153Z,10.35
2023-02-18T12:28:55.125Z,10.35
2023-02-18T12:29:55.103Z,10.35
2023-02-18T12:30:55.141Z,10.38
2023-02-18T12:31:55.146Z,10.39
2023-02-18T12:32:55.101Z,10.42
2023-02-18T12:33:55.070Z,10.46
2023-02-18T12:34:55.043Z,10.43
2023-02-18T12:35:55.050Z,10.44
2023-02-18T12:36:55.048Z,10.46
2023-02-18T12:37:55.029Z,10.42
2023-02-18T12:38:55.038Z,10.38
2023-02-18T12:39:54.997Z,10.36
2023-02-18T12:40:54.969Z,10.32
2023-02-18T12:41:54.950Z,10.36
2023-02-18T12:42:54.950Z,10.36
2023-02-18T12:43:54.925Z,10.36
2023-02-18T12:44:54.942Z,10.34
2023-02-18T12:45:54.997Z,10.35
2023-02-18T12:46:54.925Z,10.36
2023-02-18T12:47:54.875Z,10.36
2023-02-18T12:48:54.895Z,10.39
2023-02-18T12:49:54.869Z,10.35
2023-02-18T12:50:54.866Z,10.35
2023-02-18T12:51:54.826Z,10.35
2023-02-18T12:52:54.844Z,10.32